MSC Paola — 9HA2581 — position and weather

sailwx.info

Track history (hours):
 
Tides and Currents Weather Stations Pressure Air Temp Water Temp Dewpoint Dewpoint Depression Visibility Wind Speed Wind Dir Waves Ship Positions

MSC Paola

Last reported at 2015-Apr-27 07:33 UTC. Time now 2015-May-27 21:56 UTC.
Position N 24°02' E 036°49'.
Warning: this ship's position is 30 days out of date.

Length 243 m; draft 7.8 m.

Type: Ship (hazmat cat A). MMSI: 248931000.

Date/timePositionNaut miles runAvg speedWind from/ knotsBaromVisibWave heightAir tempDewpointWater temp
2015-Apr-27 07:33N 24°02' E 036°49'1717.3
2015-Apr-27 06:33N 24°17' E 036°40'1717.4
2015-Apr-27 05:33N 24°32' E 036°30'1716.9
2015-Apr-27 04:33N 24°47' E 036°21'1616.3
2015-Apr-27 03:33N 25°01' E 036°12'1716.5
2015-Apr-27 02:33N 25°15' E 036°02'2017.0
2015-Apr-27 01:24N 25°31' E 035°49'1416.3
2015-Apr-27 00:33N 25°42' E 035°40'1616.3
2015-Apr-26 23:33N 25°55' E 035°29'1616.3
2015-Apr-26 22:33N 26°08' E 035°18'1616.2
2015-Apr-26 21:33N 26°21' E 035°07'  
Track history (hours):
 
Tides and Currents Weather Stations Pressure Air Temp Water Temp Dewpoint Dewpoint Depression Visibility Wind Speed Wind Dir Waves Ship Positions

MSC Paola

Last reported at 2015-Apr-27 07:33 UTC. Time now 2015-May-27 21:56 UTC.
Position N 24°02' E 036°49'.
Warning: this ship's position is 30 days out of date.

Length 243 m; draft 7.8 m.

Type: Ship (hazmat cat A). MMSI: 248931000.

Date/timePositionNaut miles runAvg speedWind from/ knotsBaromVisibWave heightAir tempDewpointWater temp
2015-Apr-27 07:33N 24°02' E 036°49'1717.3
2015-Apr-27 06:33N 24°17' E 036°40'1717.4
2015-Apr-27 05:33N 24°32' E 036°30'1716.9
2015-Apr-27 04:33N 24°47' E 036°21'1616.3
2015-Apr-27 03:33N 25°01' E 036°12'1716.5
2015-Apr-27 02:33N 25°15' E 036°02'2017.0
2015-Apr-27 01:24N 25°31' E 035°49'1416.3
2015-Apr-27 00:33N 25°42' E 035°40'1616.3
2015-Apr-26 23:33N 25°55' E 035°29'1616.3
2015-Apr-26 22:33N 26°08' E 035°18'1616.2
2015-Apr-26 21:33N 26°21' E 035°07'  

Dump ship's entire track history